Montreal / St-Lazare Airport

METAR CYMX TAF CYMX
-27 °C
°C
-
°C
42m
Age
03:41:55
LT
02:41
UTC
0 ft

1,000

2,000

3,000

4,000

5,000

OVC 4,100
VFR
<?= Yii::t('app', 'Wind direction') ?> <?= Yii::t('app', 'of'); ?>
270°
07:13
Sunrise
47%
Humidity
Wind shear
Closed/Snow
RWY visual range
RWY condition
Vert. visibility
Min. visibility
CAVOK
Trend
Correction
Special report
30.35 inHg
QNH
METAR CYMX 040200Z 27006G15KT 230V360 15SM OVC041 M27/M35 A3035 RMK SC8 SLP289
Overcast
6 kt
6 kt
21:00
VFR
8 kt
22:00
VFR
8 kt
23:00
VFR
8 kt
00:00
VFR
8 kt
01:00
VFR
8 kt
02:00
VFR
8 kt
03:00
VFR
8 kt
15 mi
Visibility
4,100 ft
Ceiling
6-15 kt
Wind
metar-taf.com/CST3

Metar-Taf.com

Visual decoder

We and third parties follow your internet behavior on our website with cookies. If you continue, we assume you agree with our cookie policy.